Time;durP1;ratioP1;P1;durP2;ratioP2;P2;SDS_P1;SDS_P2;PMS_P1;PMS_P2;Temp;Humidity;BMP_temperature;BMP_pressure;BME280_temperature;BME280_humidity;BME280_pressure;Samples;Min_cycle;Max_cycle;Signal;HPM_P1;HPM_P2
2024/01/09 00:02:18;;;;;;;9.50;4.10;;;;;;;;;;4988516;28;20408;-65
2024/01/09 00:04:44;;;;;;;9.50;4.10;;;;;;;;;;4970396;28;20382;-65
2024/01/09 00:07:10;;;;;;;6.18;3.70;;;;;;;;;;4969916;28;20043;-65
2024/01/09 00:09:36;;;;;;;6.93;3.50;;;;;;;;;;4952972;28;20038;-65
2024/01/09 00:12:03;;;;;;;9.20;3.95;;;;;;;;;;4972052;28;20039;-65
2024/01/09 00:14:29;;;;;;;6.03;3.70;;;;;;;;;;4989638;28;20073;-65
2024/01/09 00:16:55;;;;;;;6.82;4.10;;;;;;;;;;4980226;28;20122;-65
2024/01/09 00:19:21;;;;;;;10.13;4.38;;;;;;;;;;4953500;28;20186;-65
2024/01/09 00:21:48;;;;;;;6.07;3.90;;;;;;;;;;4969605;28;20047;-65
2024/01/09 00:24:14;;;;;;;9.02;4.15;;;;;;;;;;4970145;28;20054;-65
2024/01/09 00:26:43;;;;;;;9.88;4.55;;;;;;;;;;4963079;28;20035;-65
2024/01/09 00:29:09;;;;;;;7.43;4.10;;;;;;;;;;4971444;28;20039;-65
2024/01/09 00:31:36;;;;;;;6.18;3.90;;;;;;;;;;4952738;28;20046;-65
2024/01/09 00:34:02;;;;;;;7.30;4.20;;;;;;;;;;4987706;28;20092;-65
2024/01/09 00:36:28;;;;;;;6.43;3.88;;;;;;;;;;4967047;28;20173;-65
2024/01/09 00:38:54;;;;;;;5.85;3.65;;;;;;;;;;4969731;28;20781;-65
2024/01/09 00:41:20;;;;;;;9.07;4.45;;;;;;;;;;4981311;28;20137;-65
2024/01/09 00:43:46;;;;;;;6.85;3.85;;;;;;;;;;4972172;28;20188;-65
2024/01/09 00:46:12;;;;;;;9.55;4.18;;;;;;;;;;4970450;28;20462;-65
2024/01/09 00:48:38;;;;;;;7.72;4.00;;;;;;;;;;4969992;28;20170;-65
2024/01/09 00:51:04;;;;;;;9.15;3.58;;;;;;;;;;4969384;28;20130;-65
2024/01/09 00:53:30;;;;;;;8.18;3.88;;;;;;;;;;4969782;28;20555;-65
2024/01/09 00:55:57;;;;;;;8.40;4.20;;;;;;;;;;4970435;28;20076;-65
2024/01/09 00:58:22;;;;;;;6.25;3.63;;;;;;;;;;4993019;28;20086;-65
2024/01/09 01:00:49;;;;;;;8.20;3.60;;;;;;;;;;4985647;28;20141;-65
2024/01/09 01:03:15;;;;;;;8.68;4.30;;;;;;;;;;4973008;28;20487;-65
2024/01/09 01:05:41;;;;;;;7.40;4.05;;;;;;;;;;4986982;28;20593;-65
2024/01/09 01:08:07;;;;;;;6.15;3.95;;;;;;;;;;4991279;28;20042;-65
2024/01/09 01:10:32;;;;;;;6.80;3.83;;;;;;;;;;4973080;28;20050;-65
2024/01/09 01:12:58;;;;;;;8.63;4.03;;;;;;;;;;4980659;28;20481;-65
2024/01/09 01:15:25;;;;;;;8.25;3.63;;;;;;;;;;4992522;28;20158;-65
2024/01/09 01:17:51;;;;;;;12.38;4.60;;;;;;;;;;4977142;28;20046;-65
2024/01/09 01:20:17;;;;;;;8.77;3.88;;;;;;;;;;4975206;28;20507;-65
2024/01/09 01:22:43;;;;;;;7.22;3.53;;;;;;;;;;4991925;28;20077;-65
2024/01/09 01:25:09;;;;;;;9.65;3.97;;;;;;;;;;4983153;28;20455;-65
2024/01/09 01:27:35;;;;;;;9.05;4.20;;;;;;;;;;4975349;28;20042;-65
2024/01/09 01:30:01;;;;;;;10.25;4.38;;;;;;;;;;4972601;28;20109;-65
2024/01/09 01:32:27;;;;;;;9.70;3.85;;;;;;;;;;4972044;28;20070;-65
2024/01/09 01:34:53;;;;;;;7.00;4.18;;;;;;;;;;4972359;28;20105;-65
2024/01/09 01:37:19;;;;;;;8.02;4.18;;;;;;;;;;4974153;28;20046;-65
2024/01/09 01:39:45;;;;;;;9.82;3.83;;;;;;;;;;4991977;28;20038;-65
2024/01/09 01:42:11;;;;;;;5.75;3.70;;;;;;;;;;4974534;28;20042;-65
2024/01/09 01:44:37;;;;;;;7.43;3.70;;;;;;;;;;4972593;28;20031;-65
2024/01/09 01:47:04;;;;;;;7.53;3.75;;;;;;;;;;4972441;28;20046;-65
2024/01/09 01:49:30;;;;;;;8.45;4.43;;;;;;;;;;4971978;28;20042;-65
2024/01/09 01:51:56;;;;;;;7.47;3.88;;;;;;;;;;4971565;28;20035;-65
2024/01/09 01:54:23;;;;;;;7.38;3.58;;;;;;;;;;4989789;28;20038;-65
2024/01/09 01:56:49;;;;;;;6.57;4.00;;;;;;;;;;4990044;28;20049;-65
2024/01/09 01:59:16;;;;;;;8.63;3.90;;;;;;;;;;4954251;28;20050;-65
2024/01/09 02:01:43;;;;;;;9.07;3.58;;;;;;;;;;4971399;28;20058;-65
2024/01/09 02:04:10;;;;;;;8.77;3.55;;;;;;;;;;4971727;28;20655;-65
2024/01/09 02:06:36;;;;;;;8.23;3.95;;;;;;;;;;4951239;28;20101;-65
2024/01/09 02:09:03;;;;;;;9.00;4.60;;;;;;;;;;4959170;28;20054;-65
2024/01/09 02:11:29;;;;;;;9.80;3.40;;;;;;;;;;4977895;28;20042;-65
2024/01/09 02:13:55;;;;;;;5.63;3.60;;;;;;;;;;4977184;28;20047;-65
2024/01/09 02:16:21;;;;;;;6.55;3.60;;;;;;;;;;4971722;28;20046;-65
2024/01/09 02:18:47;;;;;;;6.82;3.70;;;;;;;;;;4971783;28;20057;-65
2024/01/09 02:21:13;;;;;;;6.70;3.38;;;;;;;;;;4979773;28;20129;-65
2024/01/09 02:23:39;;;;;;;8.50;3.72;;;;;;;;;;4990854;28;20045;-65
2024/01/09 02:26:06;;;;;;;7.95;4.00;;;;;;;;;;4979045;28;20039;-65
2024/01/09 02:28:34;;;;;;;7.35;3.70;;;;;;;;;;4971350;28;20047;-65
2024/01/09 02:31:00;;;;;;;9.18;4.05;;;;;;;;;;4971678;28;20126;-65
2024/01/09 02:33:28;;;;;;;7.85;3.70;;;;;;;;;;4971071;28;20042;-65
2024/01/09 02:35:54;;;;;;;6.57;3.97;;;;;;;;;;4970669;28;20046;-65
2024/01/09 02:38:21;;;;;;;9.00;3.83;;;;;;;;;;4987704;28;20046;-65
2024/01/09 02:40:47;;;;;;;6.50;3.65;;;;;;;;;;4986941;28;20042;-65
2024/01/09 02:43:13;;;;;;;7.57;4.55;;;;;;;;;;4971055;28;20106;-65
2024/01/09 02:45:39;;;;;;;10.60;4.35;;;;;;;;;;4982134;28;20691;-65
2024/01/09 02:48:05;;;;;;;9.52;4.10;;;;;;;;;;4984035;28;20174;-65
2024/01/09 02:50:31;;;;;;;9.02;3.75;;;;;;;;;;4988791;28;20106;-65
2024/01/09 02:52:57;;;;;;;6.63;3.53;;;;;;;;;;4985033;28;20038;-65
2024/01/09 02:55:23;;;;;;;8.00;4.13;;;;;;;;;;4971549;28;20046;-66
2024/01/09 02:57:50;;;;;;;6.80;3.83;;;;;;;;;;4962384;28;20179;-66
2024/01/09 03:00:16;;;;;;;7.28;3.75;;;;;;;;;;4971114;28;20705;-66
2024/01/09 03:02:42;;;;;;;8.18;4.20;;;;;;;;;;4985214;28;20112;-66
2024/01/09 03:05:08;;;;;;;7.53;4.13;;;;;;;;;;4970758;28;20125;-66
2024/01/09 03:07:34;;;;;;;6.53;3.80;;;;;;;;;;4971098;28;20047;-66
2024/01/09 03:10:01;;;;;;;10.48;4.43;;;;;;;;;;4980977;28;20659;-66
2024/01/09 03:12:27;;;;;;;9.80;4.53;;;;;;;;;;4984181;28;20084;-66
2024/01/09 03:14:53;;;;;;;8.07;4.10;;;;;;;;;;4952975;28;20046;-66
2024/01/09 03:17:19;;;;;;;6.75;4.03;;;;;;;;;;4971009;28;20039;-66
2024/01/09 03:19:45;;;;;;;9.48;4.07;;;;;;;;;;4970588;28;20409;-66
2024/01/09 03:22:11;;;;;;;7.32;4.20;;;;;;;;;;4970468;28;20101;-66
2024/01/09 03:24:37;;;;;;;8.43;4.20;;;;;;;;;;4969015;28;20737;-66
2024/01/09 03:27:04;;;;;;;9.30;4.55;;;;;;;;;;4973820;28;20109;-66
2024/01/09 03:29:30;;;;;;;9.73;4.00;;;;;;;;;;4954686;28;20787;-66
2024/01/09 03:31:55;;;;;;;7.75;3.97;;;;;;;;;;4970672;28;20046;-66
2024/01/09 03:34:21;;;;;;;8.32;3.42;;;;;;;;;;4984734;28;20165;-66
2024/01/09 03:36:47;;;;;;;7.03;3.90;;;;;;;;;;4987670;28;20045;-66
2024/01/09 03:39:14;;;;;;;7.97;3.80;;;;;;;;;;4970606;28;20453;-66
2024/01/09 03:41:42;;;;;;;6.93;3.95;;;;;;;;;;4979524;28;20046;-66
2024/01/09 03:44:08;;;;;;;6.78;3.15;;;;;;;;;;4989345;28;20429;-66
2024/01/09 03:46:34;;;;;;;8.25;3.60;;;;;;;;;;4972561;28;20048;-66
2024/01/09 03:49:00;;;;;;;5.90;3.20;;;;;;;;;;4973459;28;20039;-66
2024/01/09 03:51:26;;;;;;;5.63;3.20;;;;;;;;;;4989545;28;20073;-66
2024/01/09 03:53:52;;;;;;;6.47;3.42;;;;;;;;;;4978512;28;20080;-66
2024/01/09 03:56:18;;;;;;;7.60;3.50;;;;;;;;;;4953147;28;20130;-66
2024/01/09 03:58:45;;;;;;;7.57;3.33;;;;;;;;;;4987870;28;20121;-66
2024/01/09 04:01:12;;;;;;;6.72;3.55;;;;;;;;;;4984677;28;20097;-66
2024/01/09 04:03:38;;;;;;;6.50;3.05;;;;;;;;;;4970489;28;20047;-66
2024/01/09 04:06:04;;;;;;;6.75;3.25;;;;;;;;;;4981410;28;20035;-66
2024/01/09 04:08:30;;;;;;;8.27;3.30;;;;;;;;;;4989646;28;20047;-66
2024/01/09 04:10:56;;;;;;;6.35;3.55;;;;;;;;;;4970821;28;20573;-66
2024/01/09 04:13:22;;;;;;;7.80;3.28;;;;;;;;;;4970284;28;20050;-66
2024/01/09 04:15:48;;;;;;;7.82;3.25;;;;;;;;;;4969817;28;20094;-66
2024/01/09 04:18:14;;;;;;;8.40;3.33;;;;;;;;;;4970457;28;20137;-66
2024/01/09 04:20:40;;;;;;;5.93;3.38;;;;;;;;;;4970289;28;20138;-66
2024/01/09 04:23:06;;;;;;;12.23;3.92;;;;;;;;;;4990046;28;20101;-66
2024/01/09 04:25:32;;;;;;;7.82;3.58;;;;;;;;;;4981734;28;20047;-66
2024/01/09 04:27:58;;;;;;;7.30;3.78;;;;;;;;;;4970175;28;20051;-66
2024/01/09 04:30:26;;;;;;;6.60;4.15;;;;;;;;;;4970822;28;20082;-66
2024/01/09 04:32:52;;;;;;;8.50;3.25;;;;;;;;;;4975328;28;20046;-66
2024/01/09 04:35:18;;;;;;;6.38;3.20;;;;;;;;;;4992765;28;20042;-66
2024/01/09 04:37:44;;;;;;;7.75;4.10;;;;;;;;;;4991733;28;20072;-66
2024/01/09 04:40:10;;;;;;;5.88;3.33;;;;;;;;;;4975670;28;20117;-66
2024/01/09 04:42:36;;;;;;;4.93;3.03;;;;;;;;;;4960418;28;20073;-66
2024/01/09 04:45:02;;;;;;;5.72;3.03;;;;;;;;;;4975334;28;20043;-66
2024/01/09 04:47:28;;;;;;;5.35;3.35;;;;;;;;;;4991116;28;20132;-66
2024/01/09 04:49:54;;;;;;;6.95;3.35;;;;;;;;;;4973614;28;20197;-66
2024/01/09 04:52:20;;;;;;;6.75;3.10;;;;;;;;;;4973398;28;20045;-66
2024/01/09 04:54:46;;;;;;;7.68;3.40;;;;;;;;;;4973071;28;20039;-66
2024/01/09 04:57:12;;;;;;;5.88;3.08;;;;;;;;;;4977136;28;20098;-66
2024/01/09 04:59:41;;;;;;;6.38;3.13;;;;;;;;;;4975447;28;20053;-66
2024/01/09 05:02:07;;;;;;;9.38;3.28;;;;;;;;;;4982007;28;20540;-66
2024/01/09 05:04:33;;;;;;;8.98;3.90;;;;;;;;;;4973236;28;20050;-66
2024/01/09 05:06:59;;;;;;;5.68;3.15;;;;;;;;;;4972630;28;20042;-66
2024/01/09 05:09:25;;;;;;;5.22;3.20;;;;;;;;;;4978027;28;20122;-66
2024/01/09 05:11:51;;;;;;;5.60;3.05;;;;;;;;;;4984169;28;20042;-66
2024/01/09 05:14:17;;;;;;;9.07;3.08;;;;;;;;;;4984774;28;20050;-66
2024/01/09 05:16:43;;;;;;;8.48;3.50;;;;;;;;;;4992593;28;20500;-66
2024/01/09 05:19:09;;;;;;;6.45;3.35;;;;;;;;;;4974056;28;20039;-66
2024/01/09 05:21:35;;;;;;;8.18;3.30;;;;;;;;;;4972855;28;20726;-66
2024/01/09 05:24:01;;;;;;;7.00;3.22;;;;;;;;;;4972948;28;20097;-66
2024/01/09 05:26:28;;;;;;;4.47;2.65;;;;;;;;;;4974605;28;20113;-66
2024/01/09 05:28:54;;;;;;;7.63;3.88;;;;;;;;;;4972529;28;20039;-66
2024/01/09 05:31:20;;;;;;;6.60;3.50;;;;;;;;;;4972956;28;20489;-66
2024/01/09 05:33:47;;;;;;;5.97;3.58;;;;;;;;;;4973026;28;20433;-66
2024/01/09 05:36:18;;;;;;;8.45;3.22;;;;;;;;;;4972437;28;20454;-66
2024/01/09 05:38:45;;;;;;;8.32;3.30;;;;;;;;;;4972464;28;20039;-66
2024/01/09 05:41:18;;;;;;;7.50;2.95;;;;;;;;;;4972526;28;20370;-66
2024/01/09 05:43:44;;;;;;;7.18;3.47;;;;;;;;;;4972738;28;20042;-66
2024/01/09 05:46:10;;;;;;;6.00;4.05;;;;;;;;;;4972114;28;20388;-66
2024/01/09 05:48:36;;;;;;;6.53;3.10;;;;;;;;;;4971231;28;20058;-66
2024/01/09 05:51:03;;;;;;;6.28;3.33;;;;;;;;;;4972403;28;20595;-66
2024/01/09 05:53:29;;;;;;;7.78;3.45;;;;;;;;;;4972383;28;20517;-66
2024/01/09 05:55:55;;;;;;;7.93;3.63;;;;;;;;;;4972041;28;20045;-66
2024/01/09 05:58:20;;;;;;;8.60;3.63;;;;;;;;;;4972123;28;20075;-66
2024/01/09 06:00:46;;;;;;;5.90;3.20;;;;;;;;;;4972413;28;20735;-65
2024/01/09 06:03:13;;;;;;;6.55;3.75;;;;;;;;;;4972089;28;20097;-65
2024/01/09 06:05:39;;;;;;;4.63;3.47;;;;;;;;;;4970975;28;20058;-65
2024/01/09 06:08:05;;;;;;;5.72;3.13;;;;;;;;;;4972535;28;20042;-65
2024/01/09 06:10:31;;;;;;;7.72;3.45;;;;;;;;;;4983892;28;20066;-65
2024/01/09 06:12:57;;;;;;;5.93;3.28;;;;;;;;;;4974490;28;20039;-65
2024/01/09 06:15:23;;;;;;;5.68;3.10;;;;;;;;;;4990664;28;20035;-65
2024/01/09 06:17:49;;;;;;;6.63;3.72;;;;;;;;;;4985259;28;20130;-65
2024/01/09 06:20:15;;;;;;;6.68;3.33;;;;;;;;;;4971955;28;20047;-65
2024/01/09 06:22:41;;;;;;;8.75;3.75;;;;;;;;;;4984641;28;20121;-65
2024/01/09 06:25:07;;;;;;;5.65;3.25;;;;;;;;;;4991360;28;20177;-65
2024/01/09 06:27:33;;;;;;;6.20;3.45;;;;;;;;;;4971773;28;20053;-65
2024/01/09 06:29:59;;;;;;;6.10;3.15;;;;;;;;;;4971772;28;20035;-65
2024/01/09 06:32:25;;;;;;;6.80;3.55;;;;;;;;;;4972182;28;20075;-65
2024/01/09 06:34:51;;;;;;;8.20;3.40;;;;;;;;;;4971524;28;20409;-65
2024/01/09 06:37:17;;;;;;;7.57;3.50;;;;;;;;;;4971392;28;20043;-65
2024/01/09 06:39:43;;;;;;;5.55;3.10;;;;;;;;;;4972434;28;20567;-66
2024/01/09 06:42:09;;;;;;;7.97;3.28;;;;;;;;;;4965466;28;20129;-65
2024/01/09 06:44:35;;;;;;;7.60;3.45;;;;;;;;;;4971208;28;20043;-66
2024/01/09 06:47:01;;;;;;;5.30;3.10;;;;;;;;;;4961176;28;20611;-65
2024/01/09 06:49:27;;;;;;;8.32;3.05;;;;;;;;;;4970687;28;20047;-65
2024/01/09 06:51:53;;;;;;;5.72;3.42;;;;;;;;;;4971192;28;20109;-66
2024/01/09 06:54:20;;;;;;;7.43;3.55;;;;;;;;;;4969292;28;20492;-66
2024/01/09 06:56:46;;;;;;;9.18;3.15;;;;;;;;;;4970861;28;20493;-66
2024/01/09 06:59:12;;;;;;;9.93;3.53;;;;;;;;;;4971092;28;20126;-66
2024/01/09 07:01:38;;;;;;;6.97;3.35;;;;;;;;;;4970802;28;20664;-66
2024/01/09 07:04:06;;;;;;;7.35;3.47;;;;;;;;;;4971275;28;20042;-65
2024/01/09 07:06:32;;;;;;;6.55;3.45;;;;;;;;;;4969945;28;20398;-66
2024/01/09 07:08:58;;;;;;;6.65;3.50;;;;;;;;;;4953787;28;20560;-66
2024/01/09 07:11:24;;;;;;;7.57;3.72;;;;;;;;;;4975713;28;20121;-67
2024/01/09 07:13:50;;;;;;;5.57;2.83;;;;;;;;;;4986013;28;20133;-66
2024/01/09 07:16:16;;;;;;;8.18;3.35;;;;;;;;;;4970947;28;20050;-67
2024/01/09 07:18:42;;;;;;;7.55;3.72;;;;;;;;;;4973187;28;20597;-66
2024/01/09 07:21:08;;;;;;;6.05;3.22;;;;;;;;;;4970547;28;20126;-68
2024/01/09 07:23:34;;;;;;;6.78;3.63;;;;;;;;;;4970600;28;20051;-67
2024/01/09 07:26:00;;;;;;;5.53;3.70;;;;;;;;;;4971278;28;20035;-68
2024/01/09 07:28:27;;;;;;;8.32;3.10;;;;;;;;;;4970503;28;20050;-67
2024/01/09 07:30:54;;;;;;;9.18;3.40;;;;;;;;;;4966255;28;20097;-67
2024/01/09 07:33:20;;;;;;;5.50;3.03;;;;;;;;;;4968921;28;20083;-67
2024/01/09 07:35:46;;;;;;;6.30;3.80;;;;;;;;;;4969943;28;20038;-67
2024/01/09 07:38:12;;;;;;;6.72;3.50;;;;;;;;;;4971411;28;20042;-66
2024/01/09 07:40:38;;;;;;;9.80;3.90;;;;;;;;;;4971860;28;20038;-67
2024/01/09 07:43:04;;;;;;;10.13;3.45;;;;;;;;;;4971500;28;20053;-67
2024/01/09 07:45:30;;;;;;;6.03;3.30;;;;;;;;;;4972458;28;20038;-67
2024/01/09 07:47:56;;;;;;;8.40;3.42;;;;;;;;;;4972601;28;20046;-67
2024/01/09 07:50:22;;;;;;;7.30;3.65;;;;;;;;;;4972581;28;20122;-66
2024/01/09 07:52:49;;;;;;;6.93;3.53;;;;;;;;;;4971334;28;20039;-66
2024/01/09 07:55:15;;;;;;;7.55;3.35;;;;;;;;;;4971357;28;20393;-67
2024/01/09 07:57:41;;;;;;;7.50;3.78;;;;;;;;;;4970050;28;20413;-68
2024/01/09 08:00:07;;;;;;;9.60;3.08;;;;;;;;;;4970622;28;20057;-68
2024/01/09 08:02:33;;;;;;;5.38;3.55;;;;;;;;;;4973679;28;20054;-68
2024/01/09 08:04:59;;;;;;;8.77;4.00;;;;;;;;;;4953749;28;20043;-69
2024/01/09 08:07:25;;;;;;;5.10;2.97;;;;;;;;;;4973489;28;20105;-68
2024/01/09 08:09:51;;;;;;;6.40;3.10;;;;;;;;;;4974107;28;20049;-68
2024/01/09 08:12:17;;;;;;;5.95;3.63;;;;;;;;;;4985652;28;20046;-68
2024/01/09 08:14:43;;;;;;;7.20;3.85;;;;;;;;;;4973838;28;20386;-69
2024/01/09 08:17:09;;;;;;;7.00;3.47;;;;;;;;;;4958845;28;20070;-68
2024/01/09 08:19:35;;;;;;;6.32;3.25;;;;;;;;;;4976424;28;20051;-68
2024/01/09 08:22:01;;;;;;;5.25;3.22;;;;;;;;;;4956146;28;20038;-68
2024/01/09 08:24:27;;;;;;;7.32;3.33;;;;;;;;;;4957054;28;20043;-68
2024/01/09 08:26:53;;;;;;;7.20;3.75;;;;;;;;;;4958175;28;20050;-68
2024/01/09 08:29:19;;;;;;;7.20;3.65;;;;;;;;;;4956838;28;20074;-68
2024/01/09 08:31:46;;;;;;;5.47;3.22;;;;;;;;;;4958458;28;20481;-68
2024/01/09 08:34:12;;;;;;;8.13;3.10;;;;;;;;;;4976204;28;20049;-67
2024/01/09 08:36:38;;;;;;;6.57;3.22;;;;;;;;;;4973995;28;20039;-68
2024/01/09 08:39:04;;;;;;;7.88;3.30;;;;;;;;;;4966591;28;20493;-67
2024/01/09 08:41:30;;;;;;;6.70;3.50;;;;;;;;;;4972887;28;20104;-67
2024/01/09 08:43:56;;;;;;;10.20;3.47;;;;;;;;;;4973371;28;20051;-67
2024/01/09 08:46:23;;;;;;;7.50;3.55;;;;;;;;;;4975315;28;20047;-68
2024/01/09 08:48:49;;;;;;;5.85;3.47;;;;;;;;;;4972635;28;20093;-68
2024/01/09 08:51:15;;;;;;;6.25;3.30;;;;;;;;;;4975527;28;20130;-69
2024/01/09 08:53:41;;;;;;;6.95;3.75;;;;;;;;;;4961555;28;20153;-68
2024/01/09 08:56:08;;;;;;;5.90;3.15;;;;;;;;;;4962827;28;20641;-68
2024/01/09 08:58:35;;;;;;;6.93;3.78;;;;;;;;;;4964554;28;20347;-68
2024/01/09 09:01:01;;;;;;;6.72;3.17;;;;;;;;;;4956357;28;20055;-68
2024/01/09 09:03:27;;;;;;;7.30;3.33;;;;;;;;;;4971627;28;20563;-69
2024/01/09 09:05:53;;;;;;;7.75;3.33;;;;;;;;;;4972202;28;20047;-71
2024/01/09 09:08:21;;;;;;;7.88;3.78;;;;;;;;;;4956162;28;20433;-69
2024/01/09 09:10:47;;;;;;;8.85;3.90;;;;;;;;;;4973247;28;20089;-69
2024/01/09 09:13:13;;;;;;;6.05;3.30;;;;;;;;;;4970775;28;20533;-68
2024/01/09 09:15:39;;;;;;;7.13;3.35;;;;;;;;;;4972239;28;20133;-69
2024/01/09 09:18:05;;;;;;;6.90;3.45;;;;;;;;;;4973344;28;20408;-68
2024/01/09 09:20:31;;;;;;;6.93;3.58;;;;;;;;;;4971247;28;20564;-67
2024/01/09 09:22:58;;;;;;;7.47;3.45;;;;;;;;;;4971506;28;20105;-68
2024/01/09 09:25:24;;;;;;;6.28;3.28;;;;;;;;;;4986981;28;20070;-66
2024/01/09 09:27:50;;;;;;;8.25;3.67;;;;;;;;;;4976269;28;20603;-67
2024/01/09 09:30:16;;;;;;;7.05;3.25;;;;;;;;;;4974358;28;20041;-68
2024/01/09 09:32:42;;;;;;;6.65;3.30;;;;;;;;;;4972689;28;20047;-68
2024/01/09 09:35:09;;;;;;;6.15;3.08;;;;;;;;;;4972290;28;20039;-68
2024/01/09 09:37:35;;;;;;;6.70;3.22;;;;;;;;;;4972738;28;20043;-68
2024/01/09 09:40:01;;;;;;;6.97;3.42;;;;;;;;;;4974079;28;20426;-68
2024/01/09 09:42:29;;;;;;;6.85;3.92;;;;;;;;;;4979528;28;20593;-68
2024/01/09 09:44:56;;;;;;;7.43;3.75;;;;;;;;;;4971943;28;20047;-68
2024/01/09 09:47:22;;;;;;;5.30;3.13;;;;;;;;;;4971889;28;20047;-68
2024/01/09 09:49:48;;;;;;;6.95;3.35;;;;;;;;;;4962203;28;20082;-68
2024/01/09 09:52:14;;;;;;;5.78;3.53;;;;;;;;;;4967559;28;20074;-69
2024/01/09 09:54:41;;;;;;;8.65;3.40;;;;;;;;;;4974049;28;20035;-68
2024/01/09 09:57:08;;;;;;;7.40;3.45;;;;;;;;;;4954507;28;20093;-68
2024/01/09 09:59:34;;;;;;;6.93;3.67;;;;;;;;;;4971277;28;20038;-69
2024/01/09 10:02:04;;;;;;;5.43;3.20;;;;;;;;;;4954401;28;20385;-69
2024/01/09 10:04:41;;;;;;;5.65;3.40;;;;;;;;;;4971810;28;20065;-69
2024/01/09 10:07:07;;;;;;;6.03;3.58;;;;;;;;;;4971662;28;20066;-65
2024/01/09 10:09:42;;;;;;;5.68;2.92;;;;;;;;;;4971542;28;20038;-65
2024/01/09 10:12:08;;;;;;;6.43;3.50;;;;;;;;;;4974097;28;20081;-65
2024/01/09 10:14:34;;;;;;;6.70;3.25;;;;;;;;;;4971638;28;20362;-65
2024/01/09 10:17:03;;;;;;;5.32;3.15;;;;;;;;;;4971012;28;20035;-65
2024/01/09 10:19:29;;;;;;;6.65;3.15;;;;;;;;;;4970023;28;20101;-65
2024/01/09 10:21:55;;;;;;;6.35;3.40;;;;;;;;;;4970626;28;20109;-65
2024/01/09 10:24:21;;;;;;;6.15;3.20;;;;;;;;;;4971318;28;20388;-66
2024/01/09 10:26:51;;;;;;;4.72;3.00;;;;;;;;;;4976348;28;20043;-65
2024/01/09 10:29:17;;;;;;;5.38;3.00;;;;;;;;;;4968147;28;20375;-65
2024/01/09 10:31:46;;;;;;;6.43;2.80;;;;;;;;;;4970177;28;20039;-66
2024/01/09 10:34:12;;;;;;;5.10;2.78;;;;;;;;;;4970825;28;20042;-65
2024/01/09 10:36:38;;;;;;;7.10;3.47;;;;;;;;;;4970495;28;20419;-65
2024/01/09 10:39:05;;;;;;;7.30;3.10;;;;;;;;;;4969181;28;20043;-66
2024/01/09 10:41:31;;;;;;;6.82;3.05;;;;;;;;;;4970104;28;20046;-66
2024/01/09 10:43:59;;;;;;;5.65;3.00;;;;;;;;;;4970480;28;20500;-65
2024/01/09 10:46:26;;;;;;;6.93;4.00;;;;;;;;;;4970562;28;20073;-68
2024/01/09 10:48:56;;;;;;;7.65;3.47;;;;;;;;;;4968828;28;20061;-68
2024/01/09 10:51:23;;;;;;;6.80;3.25;;;;;;;;;;4952742;28;20129;-68
2024/01/09 10:53:50;;;;;;;6.10;2.95;;;;;;;;;;4952720;28;20043;-68
2024/01/09 10:56:17;;;;;;;5.32;3.33;;;;;;;;;;4960023;28;20039;-68
2024/01/09 10:58:47;;;;;;;6.78;2.80;;;;;;;;;;4967868;28;20042;-68
2024/01/09 11:01:13;;;;;;;6.20;2.88;;;;;;;;;;4955649;28;20062;-68
2024/01/09 11:03:39;;;;;;;6.47;2.85;;;;;;;;;;4969797;28;20669;-68
2024/01/09 11:06:07;;;;;;;6.28;2.80;;;;;;;;;;4967402;28;20039;-68
2024/01/09 11:08:36;;;;;;;6.50;2.97;;;;;;;;;;4966922;28;20035;-68
2024/01/09 11:11:10;;;;;;;6.10;3.28;;;;;;;;;;4969108;28;20043;-69
2024/01/09 11:13:38;;;;;;;5.93;3.13;;;;;;;;;;4955570;28;20043;-69
2024/01/09 11:16:06;;;;;;;7.85;3.50;;;;;;;;;;4953931;28;20035;-69
2024/01/09 11:18:33;;;;;;;8.25;3.50;;;;;;;;;;4935123;28;20049;-69
2024/01/09 11:21:03;;;;;;;5.97;3.13;;;;;;;;;;4956950;28;20049;-68
2024/01/09 11:24:00;;;;;;;5.38;3.20;;;;;;;;;;4969613;28;20125;-68
2024/01/09 11:26:29;;;;;;;5.30;3.15;;;;;;;;;;4965778;28;20046;-68
2024/01/09 11:28:57;;;;;;;4.97;2.88;;;;;;;;;;4951354;28;20065;-68
2024/01/09 11:31:24;;;;;;;5.53;2.92;;;;;;;;;;4976064;28;20542;-69
2024/01/09 11:33:51;;;;;;;7.10;3.30;;;;;;;;;;4952892;28;20031;-68
2024/01/09 11:36:27;;;;;;;5.50;3.40;;;;;;;;;;4963151;28;20090;-68
2024/01/09 11:38:54;;;;;;;5.47;2.88;;;;;;;;;;4966890;28;20043;-69
2024/01/09 11:41:23;;;;;;;7.65;3.17;;;;;;;;;;4967743;28;20043;-68
2024/01/09 11:44:00;;;;;;;6.15;2.90;;;;;;;;;;4951149;28;20110;-69
2024/01/09 11:46:27;;;;;;;7.50;3.33;;;;;;;;;;4954942;28;20098;-70
2024/01/09 11:48:53;;;;;;;7.53;3.50;;;;;;;;;;4951856;28;20076;-69
2024/01/09 11:51:21;;;;;;;5.30;3.03;;;;;;;;;;4968514;28;20048;-70
2024/01/09 11:53:48;;;;;;;4.57;2.85;;;;;;;;;;4952070;28;20043;-70
2024/01/09 11:56:14;;;;;;;7.57;2.90;;;;;;;;;;4950578;28;20049;-69
2024/01/09 11:58:42;;;;;;;5.38;3.28;;;;;;;;;;4969050;28;20047;-70
2024/01/09 12:01:08;;;;;;;6.38;3.22;;;;;;;;;;4949933;28;20074;-69
2024/01/09 12:03:34;;;;;;;5.28;2.80;;;;;;;;;;4950438;28;20059;-69
2024/01/09 12:06:00;;;;;;;7.80;3.17;;;;;;;;;;4947132;28;20039;-69
2024/01/09 12:08:27;;;;;;;5.32;2.95;;;;;;;;;;4945797;28;20074;-69
2024/01/09 12:10:53;;;;;;;5.00;3.22;;;;;;;;;;4948927;28;20054;-70
2024/01/09 12:13:19;;;;;;;5.53;3.60;;;;;;;;;;4948319;28;20051;-69
2024/01/09 12:15:46;;;;;;;4.88;3.00;;;;;;;;;;4948385;28;20467;-69
2024/01/09 12:18:12;;;;;;;5.68;3.22;;;;;;;;;;4947750;28;20055;-69
2024/01/09 12:20:38;;;;;;;5.78;3.08;;;;;;;;;;4948023;28;20043;-69
2024/01/09 12:23:05;;;;;;;7.47;2.90;;;;;;;;;;4948872;28;20125;-70
2024/01/09 12:25:31;;;;;;;4.50;3.10;;;;;;;;;;4950577;28;20047;-69
2024/01/09 12:28:05;;;;;;;6.28;3.03;;;;;;;;;;4949432;28;20039;-68
2024/01/09 12:30:34;;;;;;;4.97;2.90;;;;;;;;;;4949526;28;20047;-68
2024/01/09 12:33:00;;;;;;;5.32;2.75;;;;;;;;;;4950065;28;20723;-68
2024/01/09 12:35:27;;;;;;;6.45;2.80;;;;;;;;;;4952990;28;20052;-68
2024/01/09 12:37:53;;;;;;;6.70;2.90;;;;;;;;;;4950541;28;20508;-69
2024/01/09 12:40:20;;;;;;;6.20;3.00;;;;;;;;;;4950210;28;20051;-69
2024/01/09 12:42:46;;;;;;;8.65;3.13;;;;;;;;;;4949642;28;20054;-69
2024/01/09 12:45:12;;;;;;;4.30;2.50;;;;;;;;;;4948859;28;20126;-69
2024/01/09 12:47:38;;;;;;;6.32;2.47;;;;;;;;;;4950066;28;20792;-69
2024/01/09 12:50:04;;;;;;;5.38;2.65;;;;;;;;;;4947727;28;20035;-68
2024/01/09 12:52:31;;;;;;;5.45;2.78;;;;;;;;;;4950567;28;20122;-68
2024/01/09 12:54:57;;;;;;;3.05;2.47;;;;;;;;;;4952319;29;20510;-68
2024/01/09 12:57:23;;;;;;;5.00;2.85;;;;;;;;;;4952583;28;20043;-68
2024/01/09 12:59:49;;;;;;;3.05;2.17;;;;;;;;;;4945112;28;20043;-69
2024/01/09 13:02:15;;;;;;;3.10;2.50;;;;;;;;;;4966435;28;20091;-69
2024/01/09 13:04:41;;;;;;;3.95;2.42;;;;;;;;;;4980467;28;20094;-69
2024/01/09 13:07:07;;;;;;;5.88;2.17;;;;;;;;;;4971940;28;20039;-69
2024/01/09 13:09:33;;;;;;;3.80;2.42;;;;;;;;;;4943934;28;20053;-69
2024/01/09 13:11:59;;;;;;;4.57;2.75;;;;;;;;;;4964397;28;20106;-69
2024/01/09 13:14:28;;;;;;;3.53;2.05;;;;;;;;;;4971855;28;20033;-69
2024/01/09 13:16:57;;;;;;;3.60;2.17;;;;;;;;;;4962333;28;20042;-69
2024/01/09 13:19:23;;;;;;;5.57;2.30;;;;;;;;;;4972465;28;20053;-69
2024/01/09 13:21:49;;;;;;;4.90;2.58;;;;;;;;;;4965118;28;20475;-69
2024/01/09 13:24:16;;;;;;;2.72;2.00;;;;;;;;;;4971290;28;20069;-69
2024/01/09 13:26:42;;;;;;;5.05;2.30;;;;;;;;;;4964723;28;20121;-69
2024/01/09 13:29:08;;;;;;;6.75;2.38;;;;;;;;;;4957634;28;20123;-69
2024/01/09 13:31:37;;;;;;;4.43;2.35;;;;;;;;;;4954857;28;20109;-69
2024/01/09 13:34:03;;;;;;;3.15;2.17;;;;;;;;;;4958141;28;20038;-69
2024/01/09 13:36:29;;;;;;;3.05;2.20;;;;;;;;;;4970416;28;20051;-71
2024/01/09 13:38:55;;;;;;;3.13;2.30;;;;;;;;;;4971750;28;20081;-67
2024/01/09 13:41:21;;;;;;;3.88;2.47;;;;;;;;;;4972100;28;20375;-67
2024/01/09 13:43:50;;;;;;;3.70;2.45;;;;;;;;;;4951422;28;20077;-67
2024/01/09 13:46:16;;;;;;;3.80;2.60;;;;;;;;;;4966059;28;20046;-67
2024/01/09 13:48:44;;;;;;;4.60;2.30;;;;;;;;;;4955587;28;20081;-67
2024/01/09 13:51:10;;;;;;;5.30;2.63;;;;;;;;;;4967949;28;20065;-67
2024/01/09 13:53:36;;;;;;;3.38;2.50;;;;;;;;;;4974894;28;20707;-67
2024/01/09 13:56:03;;;;;;;3.58;2.45;;;;;;;;;;4969485;28;20125;-67
2024/01/09 13:58:29;;;;;;;5.43;2.53;;;;;;;;;;4969708;28;20078;-67
2024/01/09 14:00:55;;;;;;;3.88;2.38;;;;;;;;;;4933996;28;1045390;-67
2024/01/09 14:03:25;;;;;;;4.43;2.13;;;;;;;;;;4973798;28;20641;-67
2024/01/09 14:05:52;;;;;;;3.78;2.53;;;;;;;;;;4970297;28;20050;-67
2024/01/09 14:08:18;;;;;;;4.40;1.77;;;;;;;;;;4979392;28;20050;-67
2024/01/09 14:10:44;;;;;;;3.22;2.20;;;;;;;;;;4941871;28;20056;-67
2024/01/09 14:13:11;;;;;;;3.35;2.15;;;;;;;;;;4966107;28;20038;-67
2024/01/09 14:15:37;;;;;;;3.63;2.00;;;;;;;;;;4971119;28;20047;-67
2024/01/09 14:18:04;;;;;;;6.00;2.20;;;;;;;;;;4969766;28;20520;-67
2024/01/09 14:20:31;;;;;;;6.03;2.25;;;;;;;;;;4971663;28;20137;-67
2024/01/09 14:22:58;;;;;;;4.72;2.40;;;;;;;;;;4963889;28;20121;-67
2024/01/09 14:25:26;;;;;;;3.50;2.20;;;;;;;;;;4962341;28;20082;-67
2024/01/09 14:27:52;;;;;;;2.20;1.90;;;;;;;;;;4972079;28;20050;-67
2024/01/09 14:30:18;;;;;;;2.70;2.20;;;;;;;;;;4967546;28;20031;-67
2024/01/09 14:32:49;;;;;;;3.88;2.17;;;;;;;;;;4968991;28;20054;-67
2024/01/09 14:35:15;;;;;;;4.03;2.35;;;;;;;;;;4969652;28;20049;-67
2024/01/09 14:37:42;;;;;;;3.80;2.22;;;;;;;;;;4970494;28;20030;-67
2024/01/09 14:40:11;;;;;;;3.42;2.67;;;;;;;;;;4971143;28;20043;-67